Time;durP1;ratioP1;P1;durP2;ratioP2;P2;SDS_P1;SDS_P2;PMS_P1;PMS_P2;Temp;Humidity;BMP_temperature;BMP_pressure;BME280_temperature;BME280_humidity;BME280_pressure;Samples;Min_cycle;Max_cycle;Signal;HPM_P1;HPM_P2
2021/08/12 00:01:43;;;;;;;7.25;3.05;;;640.50;1305.60;;;;;;4843796;29;20144;-70
2021/08/12 00:04:21;;;;;;;7.68;2.88;;;640.50;1305.60;;;;;;4843486;29;20026;-70
2021/08/12 00:06:52;;;;;;;7.40;3.17;;;640.40;1305.60;;;;;;4843599;29;20041;-70
2021/08/12 00:09:24;;;;;;;5.38;3.03;;;640.50;1305.60;;;;;;4843655;29;20361;-70
2021/08/12 00:11:57;;;;;;;5.57;2.92;;;640.40;1305.60;;;;;;4843568;29;20036;-70
2021/08/12 00:14:29;;;;;;;4.30;3.40;;;640.30;1305.60;;;;;;4843462;29;20041;-69
2021/08/12 00:17:00;;;;;;;3.78;2.78;;;640.30;1305.60;;;;;;4843549;29;20121;-69
2021/08/12 00:19:32;;;;;;;5.32;3.00;;;640.30;1305.60;;;;;;4842666;29;20066;-70
2021/08/12 00:22:04;;;;;;;4.53;2.90;;;640.30;1305.60;;;;;;4843211;29;20109;-69
2021/08/12 00:24:35;;;;;;;6.80;3.50;;;640.20;1331.20;;;;;;4843399;29;20073;-69
2021/08/12 00:27:07;;;;;;;6.40;3.30;;;640.10;1331.20;;;;;;4843386;29;20086;-70
2021/08/12 00:29:38;;;;;;;5.65;2.92;;;640.10;1331.20;;;;;;4843050;29;20032;-69
2021/08/12 00:32:10;;;;;;;6.53;2.90;;;640.00;1331.20;;;;;;4843282;29;20419;-70
2021/08/12 00:34:39;;;;;;;7.75;3.20;;;640.00;1331.20;;;;;;4843153;29;20090;-69
2021/08/12 00:37:11;;;;;;;9.93;3.55;;;640.00;1331.20;;;;;;4843211;29;20120;-70
2021/08/12 00:39:42;;;;;;;11.23;3.40;;;640.10;1305.60;;;;;;4843262;29;20113;-69
2021/08/12 00:42:14;;;;;;;7.68;4.18;;;640.10;1305.60;;;;;;4843226;29;20406;-69
2021/08/12 00:44:45;;;;;;;4.65;3.17;;;640.10;1305.60;;;;;;4842979;29;20041;-70
2021/08/12 00:47:17;;;;;;;6.43;3.83;;;640.00;1331.20;;;;;;4842797;29;20099;-70
2021/08/12 00:49:48;;;;;;;7.75;3.92;;;640.00;1331.20;;;;;;4843090;29;20064;-70
2021/08/12 00:52:22;;;;;;;5.00;3.45;;;640.00;1331.20;;;;;;4842724;29;20098;-70
2021/08/12 00:54:57;;;;;;;6.78;3.70;;;615.30;1331.20;;;;;;4843103;29;20141;-70
2021/08/12 00:57:28;;;;;;;8.63;3.88;;;615.30;1356.80;;;;;;4842800;29;20082;-70
2021/08/12 01:00:00;;;;;;;5.10;3.35;;;615.20;1356.80;;;;;;4841442;29;20073;-69
2021/08/12 01:02:32;;;;;;;7.53;3.80;;;615.20;1356.80;;;;;;4842960;29;20064;-69
2021/08/12 01:05:06;;;;;;;6.78;3.45;;;615.20;1356.80;;;;;;4842941;29;20389;-70
2021/08/12 01:07:59;;;;;;;4.55;2.90;;;615.20;1356.80;;;;;;4842206;29;20121;-69
2021/08/12 01:10:50;;;;;;;6.40;3.33;;;615.10;1356.80;;;;;;4842406;29;20030;-69
2021/08/12 01:13:56;;;;;;;9.60;3.55;;;615.20;1356.80;;;;;;4842746;29;20030;-70
2021/08/12 01:16:39;;;;;;;5.88;3.47;;;615.00;1356.80;;;;;;4842724;29;20030;-70
2021/08/12 01:19:44;;;;;;;3.90;3.50;;;615.00;1356.80;;;;;;4841391;29;20066;-70
2021/08/12 01:22:20;;;;;;;9.27;3.70;;;614.90;1356.80;;;;;;4842551;29;20038;-70
2021/08/12 01:24:59;;;;;;;4.65;3.20;;;614.90;1382.40;;;;;;4842760;29;20090;-70
2021/08/12 01:27:35;;;;;;;9.15;4.30;;;614.80;1382.40;;;;;;4841331;29;20038;-70
2021/08/12 01:30:08;;;;;;;7.30;3.45;;;614.80;1382.40;;;;;;4842541;29;20030;-69
2021/08/12 01:33:04;;;;;;;7.68;3.72;;;614.80;1382.40;;;;;;4845971;29;20125;-70
2021/08/12 01:35:38;;;;;;;5.30;3.38;;;614.80;1382.40;;;;;;4846249;29;20163;-70
2021/08/12 01:38:07;;;;;;;;;;;614.70;1382.40;;;;;;4846776;29;20030;-70
2021/08/12 01:40:37;;;;;;;6.07;3.40;;;614.70;1382.40;;;;;;4846139;29;20360;-69
2021/08/12 01:43:16;;;;;;;4.70;3.20;;;614.70;1382.40;;;;;;4846041;29;20086;-69
2021/08/12 01:45:59;;;;;;;4.43;3.13;;;614.60;1382.40;;;;;;4845803;29;20537;-71
2021/08/12 01:48:32;;;;;;;6.65;4.20;;;614.50;1408.00;;;;;;4846095;29;20137;-70
2021/08/12 01:51:04;;;;;;;7.18;4.32;;;614.50;1408.00;;;;;;4845754;29;20090;-71
2021/08/12 01:53:36;;;;;;;6.28;4.10;;;614.40;1382.40;;;;;;4845923;29;20034;-70
2021/08/12 01:56:08;;;;;;;6.45;3.97;;;614.40;1408.00;;;;;;4845954;29;20018;-71
2021/08/12 01:58:40;;;;;;;7.00;3.55;;;614.40;1408.00;;;;;;4845835;29;20033;-71
2021/08/12 02:01:12;;;;;;;7.88;4.28;;;614.40;1408.00;;;;;;4845820;29;20038;-71
2021/08/12 02:03:45;;;;;;;7.22;3.97;;;614.40;1408.00;;;;;;4845872;29;20022;-71
2021/08/12 02:06:19;;;;;;;7.80;3.60;;;614.40;1408.00;;;;;;4845902;29;20427;-71
2021/08/12 02:08:48;;;;;;;;;;;589.70;1408.00;;;;;;4846176;29;20454;-71
2021/08/12 02:11:20;;;;;;;5.35;4.05;;;589.70;1408.00;;;;;;4845612;29;19908;-71
2021/08/12 02:13:51;;;;;;;8.25;4.20;;;589.70;1433.60;;;;;;4845968;29;20026;-71
2021/08/12 02:16:23;;;;;;;9.10;4.03;;;589.60;1459.20;;;;;;4844038;29;20026;-71
2021/08/12 02:18:55;;;;;;;5.57;4.13;;;589.50;1459.20;;;;;;4845315;29;20112;-71
2021/08/12 02:21:47;;;;;;;9.85;4.50;;;589.40;1484.80;;;;;;4845152;29;20042;-71
2021/08/12 02:24:27;;;;;;;7.13;4.50;;;589.30;1484.80;;;;;;4845559;29;20033;-70
2021/08/12 02:27:15;;;;;;;9.70;4.60;;;589.20;1484.80;;;;;;4845343;29;20038;-71
2021/08/12 02:29:48;;;;;;;10.27;4.00;;;589.20;1484.80;;;;;;4845289;29;20056;-72
2021/08/12 02:32:25;;;;;;;8.40;4.43;;;589.20;1484.80;;;;;;4845293;29;20030;-71
2021/08/12 02:34:59;;;;;;;11.50;4.85;;;589.20;1484.80;;;;;;4845272;29;20117;-71
2021/08/12 02:37:34;;;;;;;8.05;4.47;;;589.00;1484.80;;;;;;4844652;29;20057;-72
2021/08/12 02:40:05;;;;;;;9.13;4.72;;;589.00;1484.80;;;;;;4844977;29;20523;-71
2021/08/12 02:42:40;;;;;;;7.55;4.55;;;589.00;1510.40;;;;;;4844199;29;20037;-71
2021/08/12 02:45:14;;;;;;;10.95;4.28;;;588.90;1510.40;;;;;;4844938;29;20054;-71
2021/08/12 02:47:46;;;;;;;5.55;3.97;;;588.90;1510.40;;;;;;4844935;29;20168;-71
2021/08/12 02:50:19;;;;;;;6.60;4.70;;;588.90;1510.40;;;;;;4845039;29;20105;-72
2021/08/12 02:52:46;;;;;;;6.13;4.22;;;588.90;1510.40;;;;;;4844816;29;20026;-71
2021/08/12 02:55:15;;;;;;;9.10;4.45;;;588.80;1510.40;;;;;;4860214;29;20068;-71
2021/08/12 02:57:48;;;;;;;10.68;4.40;;;588.80;1510.40;;;;;;4862659;29;20381;-70
2021/08/12 03:00:20;;;;;;;12.18;4.15;;;588.80;1510.40;;;;;;4860144;29;20396;-70
2021/08/12 03:02:53;;;;;;;11.07;4.72;;;588.80;1510.40;;;;;;4862537;29;20052;-70
2021/08/12 03:05:22;;;;;;;6.75;4.15;;;588.80;1510.40;;;;;;4860916;29;20025;-71
2021/08/12 03:07:54;;;;;;;8.57;4.75;;;588.80;1510.40;;;;;;4862530;29;20061;-71
2021/08/12 03:10:31;;;;;;;11.80;4.38;;;564.10;1510.40;;;;;;4862568;29;20029;-71
2021/08/12 03:13:04;;;;;;;8.55;4.38;;;588.80;1510.40;;;;;;4862614;29;20124;-70
2021/08/12 03:15:37;;;;;;;8.65;4.25;;;588.80;1510.40;;;;;;4862701;29;20084;-71
2021/08/12 03:18:11;;;;;;;10.03;4.20;;;564.10;1510.40;;;;;;4862958;29;20104;-71
2021/08/12 03:20:43;;;;;;;9.27;4.82;;;564.10;1510.40;;;;;;4862621;29;20304;-71
2021/08/12 03:23:15;;;;;;;15.65;4.82;;;563.90;1536.00;;;;;;4861927;29;20036;-71
2021/08/12 03:25:46;;;;;;;11.18;4.90;;;563.90;1536.00;;;;;;4862888;29;20372;-73
2021/08/12 03:28:17;;;;;;;11.43;4.50;;;563.90;1536.00;;;;;;4862362;29;20025;-71
2021/08/12 03:30:49;;;;;;;8.85;4.25;;;563.90;1561.60;;;;;;4860838;29;20045;-71
2021/08/12 03:33:20;;;;;;;8.07;4.60;;;563.90;1561.60;;;;;;4862711;29;20048;-71
2021/08/12 03:35:52;;;;;;;9.80;4.93;;;563.80;1561.60;;;;;;4862818;29;20030;-71
2021/08/12 03:38:24;;;;;;;6.55;4.60;;;563.70;1561.60;;;;;;4862438;29;20026;-71
2021/08/12 03:40:56;;;;;;;10.02;4.50;;;563.70;1561.60;;;;;;4861994;29;20040;-71
2021/08/12 03:43:27;;;;;;;9.52;4.80;;;563.70;1561.60;;;;;;4862445;29;20032;-71
2021/08/12 03:45:58;;;;;;;6.78;4.10;;;563.70;1561.60;;;;;;4862526;29;20055;-71
2021/08/12 03:48:32;;;;;;;13.80;5.07;;;563.70;1561.60;;;;;;4862411;29;20029;-71
2021/08/12 03:51:03;;;;;;;8.07;4.57;;;563.50;1561.60;;;;;;4862473;29;20108;-71
2021/08/12 03:53:34;;;;;;;11.70;4.47;;;563.50;1587.20;;;;;;4862305;29;20030;-71
2021/08/12 03:56:06;;;;;;;10.82;4.40;;;563.50;1587.20;;;;;;4862519;29;20036;-71
2021/08/12 03:58:39;;;;;;;8.98;4.80;;;563.50;1587.20;;;;;;4862420;29;20045;-70
2021/08/12 04:01:11;;;;;;;8.45;5.07;;;563.50;1587.20;;;;;;4862075;29;20063;-71
2021/08/12 04:03:42;;;;;;;9.68;4.90;;;563.50;1587.20;;;;;;4862275;29;20025;-71
2021/08/12 04:06:14;;;;;;;6.85;4.30;;;563.50;1587.20;;;;;;4862135;29;20121;-71
2021/08/12 04:08:45;;;;;;;18.73;5.45;;;563.50;1587.20;;;;;;4862075;29;20484;-71
2021/08/12 04:11:19;;;;;;;10.18;4.53;;;563.40;1587.20;;;;;;4861947;29;20511;-72
2021/08/12 04:13:50;;;;;;;7.70;4.43;;;563.50;1587.20;;;;;;4861969;29;20085;-72
2021/08/12 04:16:22;;;;;;;8.38;4.57;;;563.40;1587.20;;;;;;4861868;29;20083;-71
2021/08/12 04:18:53;;;;;;;7.15;4.90;;;563.40;1587.20;;;;;;4860468;29;20109;-71
2021/08/12 04:21:25;;;;;;;11.18;4.68;;;563.50;1587.20;;;;;;4861960;29;20033;-71
2021/08/12 04:23:57;;;;;;;14.35;4.28;;;563.40;1587.20;;;;;;4861826;29;20117;-70
2021/08/12 04:26:29;;;;;;;7.22;4.65;;;563.50;1587.20;;;;;;4861919;29;20025;-71
2021/08/12 04:29:01;;;;;;;7.00;4.22;;;563.50;1587.20;;;;;;4861564;29;20476;-70
2021/08/12 04:31:29;;;;;;;9.85;4.43;;;563.50;1587.20;;;;;;4858434;29;20029;-71
2021/08/12 04:34:00;;;;;;;16.75;4.88;;;563.40;1587.20;;;;;;4851171;29;20034;-69
2021/08/12 04:36:27;;;;;;;10.75;4.90;;;563.50;1587.20;;;;;;4848525;29;20109;-70
2021/08/12 04:38:53;;;;;;;10.27;4.60;;;563.40;1587.20;;;;;;4851316;29;20033;-68
2021/08/12 04:41:25;;;;;;;8.40;4.30;;;563.50;1587.20;;;;;;4850037;29;20452;-69
2021/08/12 04:43:56;;;;;;;6.57;4.03;;;563.50;1587.20;;;;;;4850942;29;20022;-69
2021/08/12 04:46:22;;;;;;;14.63;5.75;;;563.50;1612.80;;;;;;4851585;29;20128;-69
2021/08/12 04:48:52;;;;;;;11.27;4.50;;;563.60;1587.20;;;;;;4850827;29;20022;-69
2021/08/12 04:51:18;;;;;;;8.20;4.15;;;563.60;1587.20;;;;;;4849527;29;20048;-69
2021/08/12 04:53:44;;;;;;;6.38;4.10;;;563.60;1587.20;;;;;;4851779;29;20461;-69
2021/08/12 04:56:10;;;;;;;11.23;5.05;;;563.60;1587.20;;;;;;4851286;29;20476;-69
2021/08/12 04:58:36;;;;;;;10.38;5.45;;;563.70;1587.20;;;;;;4858121;29;20472;-69
2021/08/12 05:01:02;;;;;;;9.40;5.07;;;563.70;1587.20;;;;;;4861349;29;20038;-68
2021/08/12 05:03:28;;;;;;;11.55;4.82;;;563.70;1587.20;;;;;;4858299;29;20037;-69
2021/08/12 05:06:14;;;;;;;10.80;4.82;;;563.80;1561.60;;;;;;4844524;29;20036;-70
2021/08/12 05:08:40;;;;;;;7.55;4.47;;;563.80;1587.20;;;;;;4857060;29;20037;-69
2021/08/12 05:11:09;;;;;;;10.32;5.47;;;563.80;1587.20;;;;;;4867379;29;20036;-69
2021/08/12 05:13:36;;;;;;;9.65;4.80;;;563.90;1587.20;;;;;;4867168;29;20029;-69
2021/08/12 05:16:02;;;;;;;11.10;4.45;;;563.90;1561.60;;;;;;4867010;29;20057;-69
2021/08/12 05:18:28;;;;;;;7.65;4.38;;;563.90;1587.20;;;;;;4867324;29;20033;-72
2021/08/12 05:20:54;;;;;;;12.55;6.10;;;564.00;1561.60;;;;;;4867094;29;20369;-70
2021/08/12 05:23:24;;;;;;;12.50;5.13;;;564.00;1561.60;;;;;;4867280;29;20044;-70
2021/08/12 05:25:55;;;;;;;12.35;4.82;;;564.00;1561.60;;;;;;4867248;29;20469;-70
2021/08/12 05:28:26;;;;;;;8.90;4.72;;;564.10;1561.60;;;;;;4867141;29;20085;-70
2021/08/12 05:31:00;;;;;;;8.80;4.68;;;564.10;1561.60;;;;;;4867022;29;20029;-70
2021/08/12 05:33:34;;;;;;;21.50;4.68;;;588.80;1561.60;;;;;;4867208;29;20029;-70
2021/08/12 05:36:06;;;;;;;10.40;5.10;;;588.80;1561.60;;;;;;4867216;29;20041;-71
2021/08/12 05:38:38;;;;;;;12.63;4.35;;;588.80;1561.60;;;;;;4866961;29;20493;-70
2021/08/12 05:41:09;;;;;;;15.35;5.20;;;588.80;1561.60;;;;;;4867246;29;20053;-70
2021/08/12 05:43:43;;;;;;;11.85;5.32;;;588.80;1561.60;;;;;;4867198;29;20461;-71
2021/08/12 05:46:17;;;;;;;10.02;5.07;;;588.90;1561.60;;;;;;4866674;29;20057;-70
2021/08/12 05:48:48;;;;;;;10.95;5.38;;;588.90;1561.60;;;;;;4866974;29;20046;-70
2021/08/12 05:51:20;;;;;;;13.20;4.60;;;589.00;1536.00;;;;;;4867188;29;20033;-71
2021/08/12 05:53:52;;;;;;;7.75;5.18;;;589.10;1536.00;;;;;;4867002;29;20041;-71
2021/08/12 05:56:23;;;;;;;9.48;5.43;;;589.10;1536.00;;;;;;4867073;29;20400;-70
2021/08/12 05:58:54;;;;;;;9.75;5.25;;;589.20;1536.00;;;;;;4867096;29;20112;-71
2021/08/12 06:01:26;;;;;;;13.70;9.13;;;589.20;1536.00;;;;;;4866703;29;20153;-71
2021/08/12 06:03:58;;;;;;;17.65;10.63;;;589.20;1536.00;;;;;;4866934;29;20041;-71
2021/08/12 06:06:32;;;;;;;15.68;8.77;;;589.30;1536.00;;;;;;4865612;29;20058;-71
2021/08/12 06:09:04;;;;;;;13.82;7.03;;;589.40;1536.00;;;;;;4867008;29;20085;-71
2021/08/12 06:11:36;;;;;;;10.38;5.53;;;589.50;1536.00;;;;;;4865427;29;20472;-71
2021/08/12 06:14:07;;;;;;;10.18;5.53;;;589.50;1536.00;;;;;;4866730;29;20033;-71
2021/08/12 06:16:39;;;;;;;11.90;5.25;;;589.60;1536.00;;;;;;4867156;29;20032;-70
2021/08/12 06:19:10;;;;;;;11.98;5.75;;;589.60;1536.00;;;;;;4862809;29;20026;-71
2021/08/12 06:21:42;;;;;;;14.32;5.28;;;589.70;1536.00;;;;;;4863906;29;20041;-71
2021/08/12 06:24:14;;;;;;;10.13;4.97;;;614.40;1536.00;;;;;;4863980;29;20035;-71
2021/08/12 06:26:46;;;;;;;8.65;4.75;;;614.40;1536.00;;;;;;4863828;29;20051;-71
2021/08/12 06:29:18;;;;;;;7.82;5.22;;;614.50;1510.40;;;;;;4863600;29;20022;-71
2021/08/12 06:31:49;;;;;;;8.10;5.10;;;614.60;1510.40;;;;;;4863753;29;20026;-70
2021/08/12 06:34:20;;;;;;;8.60;6.00;;;614.70;1510.40;;;;;;4863729;29;20052;-71
2021/08/12 06:36:52;;;;;;;9.40;5.70;;;614.80;1510.40;;;;;;4864326;29;20033;-71
2021/08/12 06:39:26;;;;;;;7.60;5.53;;;614.90;1484.80;;;;;;4863513;29;20057;-71
2021/08/12 06:41:58;;;;;;;13.27;5.28;;;615.10;1484.80;;;;;;4863663;29;20089;-72
2021/08/12 06:44:31;;;;;;;14.88;5.28;;;615.30;1484.80;;;;;;4863631;29;20029;-71
2021/08/12 06:47:03;;;;;;;11.18;4.85;;;640.20;1459.20;;;;;;4863276;29;20472;-71
2021/08/12 06:49:37;;;;;;;7.82;5.05;;;640.50;1433.60;;;;;;4863496;29;20041;-70
2021/08/12 06:52:11;;;;;;;10.05;5.13;;;640.70;1408.00;;;;;;4863672;29;20380;-71
2021/08/12 06:54:42;;;;;;;10.85;4.97;;;665.70;1408.00;;;;;;4862137;29;20064;-71
2021/08/12 06:57:14;;;;;;;8.82;5.38;;;665.90;1382.40;;;;;;4863451;29;20025;-71
2021/08/12 06:59:46;;;;;;;9.95;5.43;;;666.20;1382.40;;;;;;4863293;29;20025;-71
2021/08/12 07:02:20;;;;;;;11.45;5.55;;;666.50;1356.80;;;;;;4863296;29;20119;-71
2021/08/12 07:04:51;;;;;;;16.13;5.13;;;691.40;1356.80;;;;;;4863261;29;20112;-71
2021/08/12 07:07:23;;;;;;;12.75;5.70;;;691.60;1331.20;;;;;;4863203;29;20058;-71
2021/08/12 07:09:55;;;;;;;10.65;5.00;;;691.90;1305.60;;;;;;4863147;29;20035;-71
2021/08/12 07:12:26;;;;;;;10.00;4.68;;;692.10;1280.00;;;;;;4863044;29;20174;-71
2021/08/12 07:14:58;;;;;;;10.20;5.28;;;716.90;1305.60;;;;;;4862840;29;20026;-71
2021/08/12 07:17:29;;;;;;;18.38;5.10;;;717.20;1280.00;;;;;;4862983;29;20108;-71
2021/08/12 07:20:05;;;;;;;14.90;4.97;;;717.50;1280.00;;;;;;4862842;29;20033;-71
2021/08/12 07:22:36;;;;;;;20.95;5.65;;;717.60;1228.80;;;;;;4862909;29;20063;-71
2021/08/12 07:25:08;;;;;;;7.25;5.25;;;742.40;1254.40;;;;;;4862936;29;20419;-71
2021/08/12 07:27:40;;;;;;;8.75;4.80;;;742.60;1228.80;;;;;;4862509;29;20037;-71
2021/08/12 07:30:12;;;;;;;6.95;4.57;;;742.70;1203.20;;;;;;4862495;29;20048;-71
2021/08/12 07:32:46;;;;;;;10.32;5.00;;;742.90;1228.80;;;;;;4862786;29;20037;-71
2021/08/12 07:35:20;;;;;;;9.90;5.30;;;743.10;1203.20;;;;;;4863009;29;20021;-71
2021/08/12 07:37:52;;;;;;;7.45;4.97;;;768.00;1177.60;;;;;;4862676;29;20022;-71
2021/08/12 07:40:27;;;;;;;11.10;4.88;;;768.10;1152.00;;;;;;4862980;29;20048;-71
2021/08/12 07:42:58;;;;;;;13.27;4.80;;;768.40;1126.40;;;;;;4862891;29;20046;-72
2021/08/12 07:45:30;;;;;;;9.25;3.90;;;768.60;1126.40;;;;;;4862188;29;20085;-71
2021/08/12 07:48:01;;;;;;;7.90;4.60;;;768.80;1100.80;;;;;;4862541;29;20081;-70
2021/08/12 07:50:33;;;;;;;10.02;4.68;;;793.60;1126.40;;;;;;4862525;29;20025;-71
2021/08/12 07:53:08;;;;;;;9.57;5.03;;;793.80;1100.80;;;;;;4862438;29;20421;-71
2021/08/12 07:55:41;;;;;;;8.82;4.85;;;794.00;1075.20;;;;;;4862577;29;20052;-71
2021/08/12 07:58:10;;;;;;;;;;;794.10;1100.80;;;;;;4862805;29;20084;-71
2021/08/12 08:00:44;;;;;;;13.30;5.00;;;794.30;1075.20;;;;;;4862113;29;20320;-71
2021/08/12 08:03:16;;;;;;;8.48;4.03;;;794.50;1049.60;;;;;;4862345;29;20038;-71
2021/08/12 08:05:47;;;;;;;4.38;3.75;;;819.30;1024.00;;;;;;4862207;29;20037;-71
2021/08/12 08:08:19;;;;;;;6.07;3.78;;;819.40;1024.00;;;;;;4861971;29;20166;-72
2021/08/12 08:10:50;;;;;;;7.45;4.07;;;819.60;998.40;;;;;;4862006;29;20032;-70
2021/08/12 08:13:22;;;;;;;6.90;3.92;;;819.70;998.40;;;;;;4861798;29;20495;-71
2021/08/12 08:15:54;;;;;;;6.03;3.47;;;819.80;972.80;;;;;;4861742;29;20057;-71
2021/08/12 08:18:26;;;;;;;6.95;4.38;;;820.00;972.80;;;;;;4861840;29;20030;-71
2021/08/12 08:20:57;;;;;;;6.20;4.13;;;844.80;998.40;;;;;;4861820;29;20173;-71
2021/08/12 08:23:28;;;;;;;7.22;4.00;;;844.90;972.80;;;;;;4861984;29;20101;-71
2021/08/12 08:26:00;;;;;;;5.40;3.90;;;845.00;972.80;;;;;;4861867;29;20464;-72
2021/08/12 08:28:31;;;;;;;4.93;3.50;;;845.30;947.20;;;;;;4861904;29;20029;-72
2021/08/12 08:31:03;;;;;;;5.72;3.60;;;845.30;921.60;;;;;;4861872;29;20038;-71
2021/08/12 08:33:36;;;;;;;7.38;4.18;;;845.40;896.00;;;;;;4861689;29;20410;-71
2021/08/12 08:36:06;;;;;;;9.33;4.20;;;845.50;921.60;;;;;;4861575;29;20048;-71
2021/08/12 08:38:38;;;;;;;5.95;4.13;;;845.70;896.00;;;;;;4861751;29;20299;-71
2021/08/12 08:41:13;;;;;;;6.30;3.95;;;870.40;896.00;;;;;;4861073;29;20077;-71
2021/08/12 08:43:47;;;;;;;7.10;3.20;;;870.60;896.00;;;;;;4861815;29;20057;-71
2021/08/12 08:46:20;;;;;;;6.25;3.70;;;870.70;870.40;;;;;;4861369;29;20106;-71
2021/08/12 08:48:57;;;;;;;8.70;3.90;;;870.80;870.40;;;;;;4861684;29;20029;-71
2021/08/12 08:51:33;;;;;;;7.18;3.72;;;870.90;870.40;;;;;;4861745;29;20049;-71
2021/08/12 08:54:06;;;;;;;6.18;3.85;;;871.00;870.40;;;;;;4861098;29;20108;-71
2021/08/12 08:56:40;;;;;;;10.10;4.25;;;871.10;870.40;;;;;;4861591;29;20055;-71
2021/08/12 08:59:14;;;;;;;10.02;4.13;;;871.20;870.40;;;;;;4861412;29;20610;-71
2021/08/12 09:01:45;;;;;;;7.20;4.30;;;871.30;870.40;;;;;;4860801;29;20038;-71
2021/08/12 09:04:17;;;;;;;4.07;3.63;;;896.00;870.40;;;;;;4861497;29;20061;-72
2021/08/12 09:06:49;;;;;;;5.82;3.60;;;896.00;844.80;;;;;;4861445;29;20025;-71
2021/08/12 09:09:21;;;;;;;5.60;3.83;;;896.10;844.80;;;;;;4859762;29;20038;-72
2021/08/12 09:11:52;;;;;;;7.05;4.18;;;896.20;819.20;;;;;;4861461;29;20021;-71
2021/08/12 09:14:43;;;;;;;9.45;4.18;;;896.30;819.20;;;;;;4859019;29;20102;-71
2021/08/12 09:17:26;;;;;;;8.90;3.85;;;896.50;819.20;;;;;;4859757;29;20034;-71
2021/08/12 09:20:18;;;;;;;10.73;4.15;;;896.60;819.20;;;;;;4859544;29;20519;-71
2021/08/12 09:23:04;;;;;;;8.32;3.88;;;896.80;793.60;;;;;;4860959;29;20034;-74
2021/08/12 09:25:50;;;;;;;19.40;12.60;;;896.70;768.00;;;;;;4861363;29;20372;-72
2021/08/12 09:28:31;;;;;;;31.35;20.85;;;921.60;819.20;;;;;;4861277;29;20393;-71
2021/08/12 09:31:05;;;;;;;11.00;6.43;;;921.60;793.60;;;;;;4859934;29;20034;-71
2021/08/12 09:33:44;;;;;;;10.02;4.43;;;921.60;793.60;;;;;;4861286;29;20026;-71
2021/08/12 09:36:41;;;;;;;6.95;4.25;;;921.70;793.60;;;;;;4860650;29;20485;-71
2021/08/12 09:39:23;;;;;;;6.97;3.92;;;921.90;768.00;;;;;;4861332;29;20072;-71
2021/08/12 09:41:55;;;;;;;5.63;3.60;;;922.00;793.60;;;;;;4860836;29;20124;-72
2021/08/12 09:44:54;;;;;;;8.07;3.80;;;922.10;793.60;;;;;;4859673;29;20568;-72
2021/08/12 09:47:32;;;;;;;8.07;4.13;;;922.10;768.00;;;;;;4861004;29;20084;-72
2021/08/12 09:50:04;;;;;;;6.70;3.60;;;922.20;742.40;;;;;;4861179;29;20057;-71
2021/08/12 09:52:37;;;;;;;5.20;3.65;;;922.20;742.40;;;;;;4862219;29;20376;-72
2021/08/12 09:55:14;;;;;;;;;;;922.30;742.40;;;;;;4865211;29;20026;-71
2021/08/12 09:57:45;;;;;;;11.95;3.67;;;922.30;768.00;;;;;;4864456;29;19908;-72
2021/08/12 10:00:30;;;;;;;7.00;3.22;;;922.40;742.40;;;;;;4864286;29;20496;-71
2021/08/12 10:03:18;;;;;;;6.43;3.75;;;922.50;742.40;;;;;;4864492;29;20435;-71
2021/08/12 10:05:51;;;;;;;9.60;3.25;;;947.20;716.80;;;;;;4864802;29;20025;-72
2021/08/12 10:08:37;;;;;;;7.90;3.93;;;947.30;716.80;;;;;;4864357;29;20428;-72
2021/08/12 10:11:28;;;;;;;6.10;3.17;;;947.30;716.80;;;;;;4864133;29;20048;-72
2021/08/12 10:14:03;;;;;;;6.45;3.50;;;947.40;716.80;;;;;;4864310;29;20370;-72
2021/08/12 10:16:40;;;;;;;4.60;3.28;;;947.40;716.80;;;;;;4864155;29;20025;-71
2021/08/12 10:19:14;;;;;;;6.40;3.00;;;947.50;691.20;;;;;;4864126;29;20040;-71
2021/08/12 10:21:46;;;;;;;4.35;3.03;;;947.50;716.80;;;;;;4863780;29;20041;-71
2021/08/12 10:24:18;;;;;;;5.72;3.50;;;947.60;716.80;;;;;;4864027;29;20052;-72
2021/08/12 10:26:52;;;;;;;3.75;3.28;;;947.70;716.80;;;;;;4863964;29;20022;-72
2021/08/12 10:29:28;;;;;;;4.80;3.72;;;947.70;716.80;;;;;;4864578;29;20030;-72
2021/08/12 10:32:01;;;;;;;4.90;3.30;;;947.80;691.20;;;;;;4863822;29;20499;-72
2021/08/12 10:34:36;;;;;;;8.73;3.20;;;947.90;665.60;;;;;;4863822;29;20037;-71
2021/08/12 10:37:09;;;;;;;6.63;3.20;;;947.80;665.60;;;;;;4863665;29;20354;-71
2021/08/12 10:39:47;;;;;;;4.47;3.05;;;947.90;640.00;;;;;;4863786;29;20037;-71
2021/08/12 10:42:23;;;;;;;6.53;3.42;;;947.90;640.00;;;;;;4864077;29;20030;-72
2021/08/12 10:44:55;;;;;;;6.95;3.53;;;948.00;640.00;;;;;;4863606;29;20495;-72
2021/08/12 10:47:55;;;;;;;4.80;2.97;;;948.00;640.00;;;;;;4863495;29;20128;-72
2021/08/12 10:50:31;;;;;;;6.82;3.28;;;972.80;665.60;;;;;;4863606;29;20025;-72
2021/08/12 10:53:18;;;;;;;5.63;3.35;;;972.80;665.60;;;;;;4863871;29;20021;-72
2021/08/12 10:56:06;;;;;;;11.90;3.28;;;972.80;665.60;;;;;;4863792;29;20040;-71
2021/08/12 10:58:40;;;;;;;4.18;3.05;;;972.80;665.60;;;;;;4863415;29;20029;-71
2021/08/12 11:01:28;;;;;;;4.53;3.30;;;972.80;665.60;;;;;;4863149;29;20090;-72
2021/08/12 11:04:06;;;;;;;6.28;3.28;;;972.90;665.60;;;;;;4862590;29;20113;-71
2021/08/12 11:06:52;;;;;;;4.57;3.10;;;972.90;640.00;;;;;;4863249;29;20100;-71
2021/08/12 11:09:24;;;;;;;5.10;3.03;;;972.90;614.40;;;;;;4863348;29;20040;-72
2021/08/12 11:11:57;;;;;;;3.92;3.50;;;973.00;614.40;;;;;;4863385;29;20033;-71
2021/08/12 11:14:50;;;;;;;5.07;2.72;;;973.00;614.40;;;;;;4863514;29;20069;-71
2021/08/12 11:17:22;;;;;;;3.85;2.90;;;973.00;588.80;;;;;;4863097;29;20353;-71
2021/08/12 11:19:56;;;;;;;3.03;2.72;;;973.00;614.40;;;;;;4863095;29;20029;-71
2021/08/12 11:22:29;;;;;;;4.00;3.30;;;973.00;614.40;;;;;;4863028;29;20033;-72
2021/08/12 11:24:58;;;;;;;;;;;973.10;588.80;;;;;;4863271;29;20030;-71
2021/08/12 11:27:37;;;;;;;6.07;2.88;;;973.00;588.80;;;;;;4862969;29;19912;-72
2021/08/12 11:30:40;;;;;;;6.03;2.80;;;973.00;588.80;;;;;;4862760;29;20049;-71
2021/08/12 11:33:28;;;;;;;5.85;3.15;;;973.10;588.80;;;;;;4862488;29;20056;-71
2021/08/12 11:36:25;;;;;;;7.10;3.00;;;973.10;588.80;;;;;;4862916;29;20060;-72
2021/08/12 11:39:06;;;;;;;4.60;2.90;;;973.10;588.80;;;;;;4862834;29;20161;-71
2021/08/12 11:41:40;;;;;;;7.22;3.10;;;973.20;588.80;;;;;;4862444;29;20503;-71
2021/08/12 11:44:16;;;;;;;7.18;3.17;;;973.30;588.80;;;;;;4862894;29;20077;-71
2021/08/12 11:46:48;;;;;;;6.00;2.95;;;973.20;588.80;;;;;;4862313;29;20128;-71
2021/08/12 11:49:21;;;;;;;5.80;3.15;;;973.30;588.80;;;;;;4862790;29;20056;-72
2021/08/12 11:52:01;;;;;;;6.03;3.63;;;973.30;563.20;;;;;;4862538;29;20029;-71
2021/08/12 11:54:32;;;;;;;4.25;2.90;;;973.30;563.20;;;;;;4862717;29;20273;-72
2021/08/12 11:57:03;;;;;;;4.30;3.20;;;973.30;588.80;;;;;;4862366;29;20057;-71
2021/08/12 11:59:35;;;;;;;5.82;3.00;;;973.00;588.80;;;;;;4862539;29;20029;-71
2021/08/12 12:02:13;;;;;;;4.38;3.38;;;973.00;588.80;;;;;;4862233;29;20089;-71
2021/08/12 12:04:47;;;;;;;5.03;3.45;;;973.00;588.80;;;;;;4862052;29;20047;-72
2021/08/12 12:07:18;;;;;;;3.67;3.10;;;972.90;588.80;;;;;;4862211;29;20078;-71
2021/08/12 12:09:50;;;;;;;4.63;3.00;;;948.10;563.20;;;;;;4862216;29;20037;-72
2021/08/12 12:12:27;;;;;;;4.93;3.20;;;947.70;588.80;;;;;;4862174;29;20034;-71
2021/08/12 12:14:58;;;;;;;4.25;3.08;;;947.40;588.80;;;;;;4862226;29;20057;-71
2021/08/12 12:17:33;;;;;;;4.13;3.00;;;947.40;614.40;;;;;;4861662;29;20034;-71
2021/08/12 12:20:35;;;;;;;8.70;3.65;;;947.50;614.40;;;;;;4861872;29;20048;-71
2021/08/12 12:23:08;;;;;;;3.53;3.03;;;947.50;614.40;;;;;;4805119;29;20050;-71
2021/08/12 12:25:48;;;;;;;8.05;3.75;;;947.20;614.40;;;;;;4804970;29;20041;-71
2021/08/12 12:28:22;;;;;;;2.95;2.63;;;922.30;665.60;;;;;;4805181;29;20087;-72
2021/08/12 12:30:54;;;;;;;4.85;3.13;;;922.10;665.60;;;;;;4804912;29;20481;-72
2021/08/12 12:33:26;;;;;;;4.65;3.30;;;922.00;640.00;;;;;;4805121;29;20066;-72
2021/08/12 12:36:02;;;;;;;3.55;2.85;;;922.10;665.60;;;;;;4805050;29;20039;-71
2021/08/12 12:38:33;;;;;;;4.05;3.00;;;922.10;665.60;;;;;;4804935;29;20110;-72
2021/08/12 12:41:12;;;;;;;3.63;3.13;;;922.20;640.00;;;;;;4804890;29;20070;-71
2021/08/12 12:43:46;;;;;;;6.10;3.60;;;922.20;640.00;;;;;;4804881;29;20038;-71
2021/08/12 12:46:32;;;;;;;5.20;3.47;;;922.10;665.60;;;;;;4804451;29;20074;-71
2021/08/12 12:49:27;;;;;;;5.05;3.28;;;921.80;691.20;;;;;;4804706;29;20087;-71
2021/08/12 12:52:11;;;;;;;4.63;3.50;;;921.70;691.20;;;;;;4804475;29;20126;-71
2021/08/12 12:54:44;;;;;;;4.40;3.40;;;921.70;691.20;;;;;;4804825;29;20031;-71